الصفحة الرئيسية
METAR-TAF:

METAR-TAF

مطار :

مطار الكويت الدولي

مدينة الكويت, الكويت

دائرة عرض: 29-13N, خط طول: 047-59E, ارتفاع: 55 متر

مراقبة الطقس الحالي

تاريخ ووقت الإصدار 19 دقيقة قبل الساعة 12:00UTC
ريح 21 عقدة من الشمال/الشمال الغربي
درجة الحرارة 41°درجة مئوية
الرطوبة 16%
ضغط 1000 hPa
الرؤية: 1800 متر
سماء صافية
(شديد) , غبار

METAR: OKBK 231200Z 34021KT 1800 +BLDU SKC 41/10 Q1000 NOSIG

زمن: 15:19 (12:19 UTC)

توقعات

تاريخ ووقت الإصدار 1ساعة و 34 دقيقة قبل الساعة 10:45UTC
التوقعات صالحة من23 الساعة 12 UTC إلى 24 الساعة 18 UTC
ريح 18 عقدة من الشمال/الشمال الغربي تتزايد حتى 30 عقدة
الرؤية: 6000 متر
سماء صافية
مؤقت
من 23 الساعة 12 UTC إلى 23 الساعة 18 UTC
الرؤية: 1500 متر
هبوب الغبار
نظرية الاحتمالات 30% :
مؤقت
من 23 الساعة 12 UTC إلى 23 الساعة 15 UTC
الرؤية: 0500 متر

TAF: OKBK 231045Z 2312/2418 34018G30KT 6000 SKC TEMPO 2312/2318 1500 BLDU PROB30 TEMPO 2312/2315 0500 DS

أرصاد الطقس والتوقعات من أكثر من 4000 مطار (تقارير الطقس للمطار METAR والتنبؤ بالطقس بالمطارTAF).

المحطات المتاحة هي النقط الصفراء والحمراء على الخريطة.

حرك المؤشر فوق النقطة لمعرفة اسم المحطة.

ثم انقر لمعرفة أرصاد وتوقعات الطقس.

لتغيير الخارطة: اضغط على الأزرار الخضراء مع رمز الصليب الأسود للتكبير. على الزر الأخضر مع شرطة للتصغير، أو على الأسهم الخضراء للخرائط المجاورة.


METAR-TAF: